Time;durP1;ratioP1;P1;durP2;ratioP2;P2;SDS_P1;SDS_P2;PMS_P1;PMS_P2;Temp;Humidity;BMP_temperature;BMP_pressure;BME280_temperature;BME280_humidity;BME280_pressure;Samples;Min_cycle;Max_cycle;Signal;HPM_P1;HPM_P2
2021/03/01 00:04:59;;;;;;;23.13;15.05;;;;;;;3.46;100.00;102563.75;9987527;29;20069;-72
2021/03/01 00:10:04;;;;;;;16.70;12.98;;;;;;;3.44;100.00;102580.22;9973647;29;20078;-72
2021/03/01 00:15:08;;;;;;;21.75;15.25;;;;;;;3.42;100.00;102576.75;9989028;29;20054;-72
2021/03/01 00:20:13;;;;;;;18.27;14.25;;;;;;;3.35;100.00;102573.97;9988125;29;20075;-73
2021/03/01 00:25:16;;;;;;;20.77;15.32;;;;;;;3.29;100.00;102579.09;9988735;29;20062;-73
2021/03/01 00:30:21;;;;;;;19.70;14.77;;;;;;;3.21;100.00;102573.75;9987996;29;20525;-72
2021/03/01 00:35:24;;;;;;;19.02;15.40;;;;;;;3.31;100.00;102583.47;9989848;29;20137;-73
2021/03/01 00:40:26;;;;;;;18.50;13.80;;;;;;;3.27;100.00;102588.59;9958119;29;20054;-72
2021/03/01 00:45:28;;;;;;;21.90;14.48;;;;;;;3.22;100.00;102591.13;9972573;29;20062;-73
2021/03/01 00:50:31;;;;;;;20.30;14.18;;;;;;;3.13;100.00;102590.97;9957838;29;20062;-73
2021/03/01 00:55:33;;;;;;;18.02;14.57;;;;;;;3.09;100.00;102597.00;9987404;29;20458;-72
2021/03/01 01:00:36;;;;;;;20.10;14.18;;;;;;;2.94;100.00;102575.84;9972962;29;20081;-72
2021/03/01 01:05:40;;;;;;;17.95;14.40;;;;;;;2.87;100.00;102579.19;9971786;29;20064;-72
2021/03/01 01:10:43;;;;;;;21.20;15.32;;;;;;;2.81;100.00;102589.50;9971328;29;20397;-73
2021/03/01 01:15:45;;;;;;;20.15;13.07;;;;;;;2.86;100.00;102590.44;9971768;29;20396;-72
2021/03/01 01:20:47;;;;;;;21.02;13.48;;;;;;;2.81;100.00;102581.69;9971770;29;20054;-73
2021/03/01 01:25:48;;;;;;;22.20;16.40;;;;;;;2.76;100.00;102576.41;9986632;29;20069;-72
2021/03/01 01:30:51;;;;;;;25.85;16.75;;;;;;;2.70;100.00;102577.97;9986545;29;20059;-73
2021/03/01 01:35:54;;;;;;;21.65;15.15;;;;;;;2.45;100.00;102556.69;9970796;29;20484;-72
2021/03/01 01:41:02;;;;;;;21.17;14.98;;;;;;;2.50;100.00;102573.28;9986131;29;20138;-73
2021/03/01 01:46:05;;;;;;;20.17;15.23;;;;;;;2.43;100.00;102568.78;9956187;29;20519;-73
2021/03/01 01:51:07;;;;;;;23.75;15.73;;;;;;;2.32;100.00;102559.03;9970759;29;20388;-73
2021/03/01 01:56:11;;;;;;;19.15;13.95;;;;;;;2.23;100.00;102570.97;9970175;29;20058;-73
2021/03/01 02:01:13;;;;;;;21.63;16.70;;;;;;;2.31;100.00;102580.66;9985527;29;20060;-72
2021/03/01 02:06:22;;;;;;;21.77;16.40;;;;;;;2.46;100.00;102589.66;9985165;29;20054;-72
2021/03/01 02:11:51;;;;;;;21.90;16.25;;;;;;;2.44;100.00;102587.88;9985579;29;20058;-72
2021/03/01 02:16:55;;;;;;;23.02;16.35;;;;;;;2.30;100.00;102582.38;9984975;29;20142;-72
2021/03/01 02:21:59;;;;;;;22.90;16.00;;;;;;;2.27;100.00;102585.78;9984682;29;20062;-73
2021/03/01 02:27:01;;;;;;;24.52;17.00;;;;;;;2.19;100.00;102576.06;9969491;29;20058;-73
2021/03/01 02:32:05;;;;;;;22.00;16.73;;;;;;;2.06;100.00;102571.47;9984960;29;20150;-73
2021/03/01 02:37:13;;;;;;;21.77;16.53;;;;;;;1.91;100.00;102559.00;9969037;29;20149;-72
2021/03/01 02:42:22;;;;;;;20.77;16.05;;;;;;;2.02;100.00;102577.41;9984942;29;20099;-73
2021/03/01 02:47:25;;;;;;;22.67;16.77;;;;;;;2.02;100.00;102574.81;9983853;29;20051;-72
2021/03/01 02:52:30;;;;;;;23.08;18.17;;;;;;;1.94;100.00;102568.56;9969431;29;20465;-72
2021/03/01 02:57:32;;;;;;;23.80;18.00;;;;;;;1.77;100.00;102548.28;9983498;29;20468;-72
2021/03/01 03:02:35;;;;;;;26.35;20.05;;;;;;;1.73;100.00;102543.88;9969244;29;20054;-73
2021/03/01 03:07:40;;;;;;;24.20;18.35;;;;;;;1.72;100.00;102556.81;9983731;29;20436;-73
2021/03/01 03:12:44;;;;;;;25.23;17.80;;;;;;;1.66;100.00;102552.38;9984073;29;20066;-73
2021/03/01 03:17:51;;;;;;;24.05;17.85;;;;;;;1.68;100.00;102549.78;9953305;29;20135;-73
2021/03/01 03:22:56;;;;;;;22.17;16.73;;;;;;;1.61;100.00;102553.97;9983467;29;20468;-73
2021/03/01 03:28:00;;;;;;;25.08;17.85;;;;;;;1.46;100.00;102543.22;9953324;29;20069;-72
2021/03/01 03:33:03;;;;;;;22.13;16.73;;;;;;;1.52;100.00;102549.44;9982983;29;20085;-72
2021/03/01 03:38:12;;;;;;;28.73;20.67;;;;;;;1.48;100.00;102544.13;9974687;29;20229;-72
2021/03/01 03:43:15;;;;;;;27.92;19.85;;;;;;;1.39;100.00;102533.53;9975213;29;20062;-72
2021/03/01 03:48:22;;;;;;;25.25;18.35;;;;;;;1.48;100.00;102549.34;9974714;29;20102;-72
2021/03/01 03:53:28;;;;;;;25.33;20.08;;;;;;;1.43;100.00;102548.31;9989728;29;20062;-73
2021/03/01 03:58:36;;;;;;;24.73;18.05;;;;;;;1.35;100.00;102544.66;9974377;29;20139;-73
2021/03/01 04:03:39;;;;;;;25.00;16.83;;;;;;;1.25;100.00;102541.00;9974459;29;20058;-72
2021/03/01 04:08:44;;;;;;;;;;;;;;;1.18;100.00;102540.78;9974520;29;20065;-72
2021/03/01 04:13:48;;;;;;;27.13;18.33;;;;;;;1.18;100.00;102561.53;9989332;29;19932;-73
2021/03/01 04:18:55;;;;;;;23.15;17.40;;;;;;;1.21;100.00;102564.22;9958001;29;20111;-73
2021/03/01 04:23:58;;;;;;;24.08;17.52;;;;;;;1.11;100.00;102561.38;9973730;29;20118;-73
2021/03/01 04:29:03;;;;;;;25.63;18.10;;;;;;;1.07;100.00;102562.16;9989052;29;20070;-73
2021/03/01 04:34:06;;;;;;;26.67;19.07;;;;;;;1.08;100.00;102563.03;9973457;29;20058;-73
2021/03/01 04:39:09;;;;;;;27.60;19.30;;;;;;;1.00;100.00;102565.44;9973202;29;20062;-72
2021/03/01 04:44:13;;;;;;;23.25;17.23;;;;;;;1.06;100.00;102578.56;9973264;29;20069;-73
2021/03/01 04:49:19;;;;;;;24.95;18.45;;;;;;;1.02;100.00;102576.72;9973473;29;20484;-73
2021/03/01 04:54:21;;;;;;;24.77;17.63;;;;;;;0.94;100.00;102573.03;9972948;29;20096;-73
2021/03/01 04:59:27;;;;;;;25.00;18.27;;;;;;;1.01;100.00;102581.88;9971899;29;20129;-73
2021/03/01 05:04:29;;;;;;;26.25;17.92;;;;;;;0.98;100.00;102580.09;9972947;29;20068;-73
2021/03/01 05:09:34;;;;;;;25.10;17.75;;;;;;;1.04;100.00;102592.34;9971788;29;20061;-73
2021/03/01 05:14:39;;;;;;;26.25;18.50;;;;;;;1.00;100.00;102587.91;9987448;29;20062;-73
2021/03/01 05:19:43;;;;;;;25.30;17.55;;;;;;;0.95;100.00;102586.91;9970813;29;20469;-72
2021/03/01 05:24:47;;;;;;;24.65;17.08;;;;;;;0.86;100.00;102589.25;9987637;29;20077;-72
2021/03/01 05:29:49;;;;;;;27.27;19.23;;;;;;;0.91;100.00;102601.53;9971176;29;20554;-73
2021/03/01 05:34:53;;;;;;;23.52;17.10;;;;;;;0.85;100.00;102603.94;9986479;29;20065;-72
2021/03/01 05:39:56;;;;;;;24.55;16.83;;;;;;;0.76;100.00;102604.56;9971183;29;20457;-73
2021/03/01 05:45:00;;;;;;;26.13;16.92;;;;;;;0.70;100.00;102596.59;9971261;29;20054;-73
2021/03/01 05:50:04;;;;;;;22.52;16.35;;;;;;;0.66;100.00;102606.88;9970186;29;20489;-72
2021/03/01 05:55:09;;;;;;;22.35;16.08;;;;;;;0.62;100.00;102616.25;9970681;29;20396;-72
2021/03/01 06:00:12;;;;;;;30.33;20.55;;;;;;;0.63;100.00;102622.34;9969888;29;20077;-73
2021/03/01 06:05:17;;;;;;;27.55;18.42;;;;;;;0.66;100.00;102631.09;9971211;29;20161;-73
2021/03/01 06:10:25;;;;;;;33.60;21.38;;;;;;;0.54;100.00;102629.84;9986101;29;20137;-73
2021/03/01 06:15:30;;;;;;;27.42;20.08;;;;;;;0.51;100.00;102640.13;9969617;29;20058;-72
2021/03/01 06:20:36;;;;;;;22.67;16.48;;;;;;;0.46;100.00;102640.00;9986179;29;20054;-72
2021/03/01 06:25:40;;;;;;;18.08;14.05;;;;;;;0.33;100.00;102643.06;9984376;29;20070;-73
2021/03/01 06:30:44;;;;;;;18.20;14.23;;;;;;;0.49;100.00;102672.91;9969592;29;20091;-73
2021/03/01 06:35:56;;;;;;;17.55;13.38;;;;;;;0.61;100.00;102689.72;9983850;29;20088;-73
2021/03/01 06:41:09;;;;;;;18.30;13.80;;;;;;;0.68;100.00;102695.94;9969611;29;20487;-73
2021/03/01 06:46:13;;;;;;;19.42;13.93;;;;;;;0.87;100.00;102721.59;9984112;29;20441;-73
2021/03/01 06:51:18;;;;;;;19.90;15.18;;;;;;;1.12;100.00;102744.84;9985088;29;20141;-72
2021/03/01 06:56:22;;;;;;;22.77;17.05;;;;;;;1.47;100.00;102773.53;9984626;29;20060;-73
2021/03/01 07:01:29;;;;;;;31.27;21.10;;;;;;;1.72;100.00;102781.16;9954671;29;20116;-73
2021/03/01 07:06:36;;;;;;;26.80;18.85;;;;;;;1.92;100.00;102786.88;9954049;29;20128;-73
2021/03/01 07:11:39;;;;;;;26.40;18.55;;;;;;;2.39;100.00;102808.00;9974246;29;20050;-73
2021/03/01 07:16:41;;;;;;;22.02;16.33;;;;;;;2.48;100.00;102808.22;9999662;29;20070;-71
2021/03/01 07:21:47;;;;;;;23.58;17.50;;;;;;;2.90;100.00;102821.34;10009224;29;20061;-70
2021/03/01 07:26:58;;;;;;;22.42;16.33;;;;;;;3.64;100.00;102843.78;9967555;29;20065;-71
2021/03/01 07:32:02;;;;;;;;;;;;;;;4.23;100.00;102832.72;9993401;29;20056;-71
2021/03/01 07:37:19;;;;;;;25.50;18.58;;;;;;;5.07;100.00;102841.03;10025313;29;19928;-71
2021/03/01 07:42:33;;;;;;;24.60;19.25;;;;;;;6.04;100.00;102849.22;9995253;29;20073;-71
2021/03/01 07:47:37;;;;;;;23.85;18.02;;;;;;;6.57;100.00;102814.81;9995527;29;20455;-71
2021/03/01 07:53:05;;;;;;;22.58;18.23;;;;;;;6.92;94.51;102778.38;10010628;29;20069;-70
2021/03/01 07:58:07;;;;;;;21.73;17.65;;;;;;;7.44;90.70;102785.63;9991332;29;20122;-71
2021/03/01 08:03:36;;;;;;;19.73;15.88;;;;;;;7.65;87.36;102747.19;10010063;29;20484;-70
2021/03/01 08:08:46;;;;;;;20.00;16.70;;;;;;;7.85;86.53;102711.38;9980972;29;20062;-71
2021/03/01 08:13:47;;;;;;;41.35;20.40;;;;;;;8.68;84.69;102778.78;9997908;29;20089;-72
2021/03/01 08:18:54;;;;;;;41.45;20.35;;;;;;;9.46;80.31;102784.63;9977345;29;20050;-71
2021/03/01 08:24:01;;;;;;;25.05;18.40;;;;;;;9.88;78.00;102776.50;9990194;29;20047;-70
2021/03/01 08:29:32;;;;;;;19.38;16.35;;;;;;;10.37;75.67;102764.78;9990223;29;20153;-71
2021/03/01 08:34:36;;;;;;;16.83;14.93;;;;;;;11.27;71.86;102744.44;10002259;29;20061;-70
2021/03/01 08:39:54;;;;;;;15.77;13.00;;;;;;;12.08;68.97;102765.28;9989951;29;20058;-71
2021/03/01 08:44:56;;;;;;;16.17;14.48;;;;;;;12.94;65.50;102754.06;9961392;29;20401;-71
2021/03/01 08:50:06;;;;;;;15.50;13.68;;;;;;;12.33;65.80;102682.94;10002336;29;20062;-71
2021/03/01 08:55:08;;;;;;;16.50;13.50;;;;;;;12.53;65.06;102662.28;10006515;29;20450;-72
2021/03/01 09:00:11;;;;;;;16.25;12.57;;;;;;;13.53;63.13;102717.53;10022873;29;20461;-70
2021/03/01 09:05:20;;;;;;;16.40;14.75;;;;;;;13.62;61.39;102662.59;10023477;29;20081;-71
2021/03/01 09:10:40;;;;;;;14.32;12.02;;;;;;;13.33;63.19;102682.69;9990627;29;20138;-72
2021/03/01 09:15:45;;;;;;;16.55;13.10;;;;;;;13.98;61.12;102674.03;9973335;29;20454;-71
2021/03/01 09:20:57;;;;;;;15.68;11.77;;;;;;;13.85;60.65;102635.50;10023341;29;20049;-71
2021/03/01 09:26:01;;;;;;;15.82;12.95;;;;;;;14.95;59.12;102693.53;9984852;29;20482;-71
2021/03/01 09:31:11;;;;;;;14.70;13.02;;;;;;;14.51;59.97;102670.91;9985418;29;20051;-71
2021/03/01 09:36:14;;;;;;;16.20;13.35;;;;;;;15.52;58.05;102712.16;9976844;29;20062;-71
2021/03/01 09:41:25;;;;;;;15.88;12.70;;;;;;;15.34;56.67;102598.50;10020287;29;20058;-71
2021/03/01 09:46:30;;;;;;;15.02;13.13;;;;;;;16.08;56.96;102722.75;9981780;29;20055;-70
2021/03/01 09:51:34;;;;;;;14.85;12.57;;;;;;;15.70;55.99;102596.47;9983643;29;20069;-71
2021/03/01 09:56:40;;;;;;;13.70;12.27;;;;;;;16.60;53.92;102618.06;9983601;29;20071;-71
2021/03/01 10:01:42;;;;;;;14.20;11.80;;;;;;;14.75;55.54;102432.28;9980265;29;20062;-71
2021/03/01 10:06:46;;;;;;;14.85;11.32;;;;;;;16.79;53.91;102629.78;10003613;29;20146;-71
2021/03/01 10:12:01;;;;;;;13.10;11.60;;;;;;;16.22;54.94;102603.50;10005917;29;20054;-71
2021/03/01 10:17:27;;;;;;;13.65;11.95;;;;;;;17.27;53.01;102642.97;10004648;29;20068;-70
2021/03/01 10:22:32;;;;;;;13.13;11.82;;;;;;;16.22;54.45;102580.44;9999003;29;20112;-71
2021/03/01 10:27:42;;;;;;;12.25;10.88;;;;;;;17.01;53.57;102625.38;9977101;29;20066;-71
2021/03/01 10:32:45;;;;;;;15.57;11.38;;;;;;;15.22;55.91;102495.34;9982120;29;20077;-71
2021/03/01 10:38:08;;;;;;;14.45;11.60;;;;;;;16.26;55.18;102595.34;9968747;29;20456;-71
2021/03/01 10:43:13;;;;;;;13.27;10.32;;;;;;;16.40;54.11;102575.38;10010778;29;20057;-71
2021/03/01 10:48:21;;;;;;;14.30;12.52;;;;;;;16.76;53.74;102565.13;10009874;29;20058;-69
2021/03/01 10:53:30;;;;;;;14.40;12.90;;;;;;;18.63;48.78;102606.06;9985669;29;20127;-70
2021/03/01 10:58:31;;;;;;;11.60;9.70;;;;;;;17.99;50.38;102544.88;9978819;29;20058;-70
2021/03/01 11:03:34;;;;;;;12.23;10.55;;;;;;;16.75;52.75;102523.47;10003956;29;20853;-71
2021/03/01 11:08:37;;;;;;;20.83;18.58;;;;;;;18.09;50.35;102569.34;9978118;29;20073;-73
2021/03/01 11:13:43;;;;;;;11.05;9.80;;;;;;;17.36;50.23;102436.59;9959031;29;20058;-73
2021/03/01 11:18:49;;;;;;;25.63;23.23;;;;;;;19.27;48.34;102629.72;9993618;29;20065;-73
2021/03/01 11:23:52;;;;;;;13.55;11.75;;;;;;;18.75;48.91;102552.06;9979276;29;20063;-73
2021/03/01 11:28:59;;;;;;;12.25;10.75;;;;;;;17.93;50.28;102486.50;9987627;29;20058;-73
2021/03/01 11:34:06;;;;;;;13.43;10.80;;;;;;;18.09;48.20;102465.31;9991463;29;20145;-73
2021/03/01 11:39:13;;;;;;;13.40;10.27;;;;;;;19.21;47.83;102574.78;9994562;29;20571;-72
2021/03/01 11:44:17;;;;;;;19.55;11.85;;;;;;;19.61;47.85;102586.19;10006092;29;20070;-73
2021/03/01 11:49:18;;;;;;;11.50;10.30;;;;;;;20.16;45.70;102576.19;9979077;29;20138;-73
2021/03/01 11:54:22;;;;;;;21.40;19.08;;;;;;;20.34;45.47;102601.13;9979914;29;20452;-73
2021/03/01 11:59:29;;;;;;;13.98;12.48;;;;;;;19.24;45.32;102457.06;9996887;29;20065;-71
2021/03/01 12:04:32;;;;;;;13.73;11.15;;;;;;;19.77;45.56;102479.28;10000634;29;20141;-72
2021/03/01 12:09:36;;;;;;;13.97;12.47;;;;;;;20.13;44.81;102497.88;9983382;29;20119;-73
2021/03/01 12:14:44;;;;;;;14.10;10.95;;;;;;;20.30;44.25;102536.16;9973523;29;20649;-73
2021/03/01 12:19:52;;;;;;;11.98;10.32;;;;;;;20.29;43.11;102415.78;9987534;29;20038;-73
2021/03/01 12:25:00;;;;;;;12.45;8.95;;;;;;;19.48;43.09;102384.59;9988087;29;20065;-72
2021/03/01 12:30:07;;;;;;;13.00;9.85;;;;;;;17.90;44.75;102235.13;9989554;29;20085;-73
2021/03/01 12:35:36;;;;;;;13.45;11.27;;;;;;;19.09;46.23;102415.06;10021241;29;20447;-75
2021/03/01 12:40:39;;;;;;;11.90;10.70;;;;;;;20.97;43.37;102534.25;10006217;29;20122;-72
2021/03/01 12:45:43;;;;;;;15.30;10.32;;;;;;;20.95;42.52;102439.66;10024761;29;20054;-73
2021/03/01 12:50:47;;;;;;;15.23;13.60;;;;;;;21.70;42.36;102522.75;9992798;29;20070;-72
2021/03/01 12:55:54;;;;;;;15.52;11.15;;;;;;;19.06;44.33;102287.00;9964186;29;20058;-72
2021/03/01 13:00:58;;;;;;;14.57;10.15;;;;;;;22.03;41.30;102597.72;9975629;29;20046;-72
2021/03/01 13:06:09;;;;;;;15.07;11.30;;;;;;;22.68;39.63;102507.63;9994313;29;20118;-72
2021/03/01 13:11:11;;;;;;;15.77;12.73;;;;;;;20.51;43.92;102399.38;10014256;29;20054;-71
2021/03/01 13:16:13;;;;;;;12.60;10.65;;;;;;;20.78;43.51;102403.16;10023699;29;20100;-72
2021/03/01 13:21:14;;;;;;;14.57;10.95;;;;;;;20.42;44.44;102377.53;10022961;29;20494;-70
2021/03/01 13:26:18;;;;;;;12.45;10.18;;;;;;;18.15;47.83;102243.63;9985743;29;20058;-69
2021/03/01 13:31:21;;;;;;;14.63;11.18;;;;;;;18.91;47.11;102319.88;10022975;29;20054;-71
2021/03/01 13:36:24;;;;;;;11.63;10.30;;;;;;;18.78;46.86;102319.63;10021011;29;20544;-71
2021/03/01 13:41:26;;;;;;;12.27;10.23;;;;;;;17.83;49.30;102269.19;10006439;29;20061;-71
2021/03/01 13:46:28;;;;;;;13.93;11.02;;;;;;;16.67;51.16;102180.44;10020993;29;20088;-71
2021/03/01 13:51:31;;;;;;;12.77;10.27;;;;;;;16.83;53.88;102274.66;10021498;29;20046;-72
2021/03/01 13:56:33;;;;;;;11.70;10.48;;;;;;;16.25;54.43;102261.13;9995067;29;20136;-72
2021/03/01 14:01:35;;;;;;;15.02;11.80;;;;;;;15.48;57.07;102283.66;9995870;29;20046;-72
2021/03/01 14:06:38;;;;;;;14.00;12.10;;;;;;;14.97;57.75;102249.31;10014401;29;20377;-72
2021/03/01 14:11:43;;;;;;;13.02;11.32;;;;;;;15.34;58.50;102312.53;9969305;29;20058;-71
2021/03/01 14:16:46;;;;;;;;;;;;;;;14.68;58.18;102245.03;10002050;29;20471;-71
2021/03/01 14:21:50;;;;;;;14.02;10.93;;;;;;;14.84;60.06;102313.47;9993521;29;19964;-71
2021/03/01 14:26:53;;;;;;;14.07;12.52;;;;;;;14.77;59.43;102311.06;9980288;29;20438;-72
2021/03/01 14:31:55;;;;;;;12.77;9.77;;;;;;;14.67;59.80;102304.31;9998815;29;20058;-72
2021/03/01 14:37:01;;;;;;;12.40;9.77;;;;;;;14.35;61.41;102299.19;9979665;29;20082;-72
2021/03/01 14:42:09;;;;;;;12.23;10.32;;;;;;;13.77;62.96;102248.06;10008705;29;20053;-72
2021/03/01 14:47:13;;;;;;;12.60;10.60;;;;;;;13.74;64.35;102274.63;9967764;29;20119;-73
2021/03/01 14:52:15;;;;;;;14.07;10.20;;;;;;;13.69;63.24;102268.63;9984189;29;20061;-72
2021/03/01 14:57:19;;;;;;;11.15;9.95;;;;;;;13.65;63.75;102286.38;9968390;29;20058;-72
2021/03/01 15:02:21;;;;;;;13.50;12.05;;;;;;;13.53;64.69;102275.31;9969058;29;20145;-71
2021/03/01 15:07:45;;;;;;;13.52;11.10;;;;;;;13.22;65.18;102262.94;9968234;29;20062;-72
2021/03/01 15:12:50;;;;;;;13.75;11.52;;;;;;;13.07;65.76;102276.56;9981073;29;20137;-72
2021/03/01 15:17:52;;;;;;;14.55;12.80;;;;;;;12.74;66.76;102257.22;9952928;29;20062;-72
2021/03/01 15:22:55;;;;;;;14.85;12.57;;;;;;;12.82;67.87;102278.16;9953378;29;20389;-72
2021/03/01 15:27:59;;;;;;;17.20;13.57;;;;;;;12.61;68.80;102276.09;9967828;29;20089;-72
2021/03/01 15:33:04;;;;;;;15.88;13.40;;;;;;;12.22;70.46;102270.03;9989713;29;20145;-72
2021/03/01 15:38:07;;;;;;;17.75;13.10;;;;;;;12.07;70.81;102282.69;9973602;29;20047;-72
2021/03/01 15:43:12;;;;;;;16.15;13.15;;;;;;;12.05;71.03;102284.50;9989385;29;20058;-72
2021/03/01 15:48:13;;;;;;;15.48;12.65;;;;;;;11.72;71.67;102272.91;9989422;29;20050;-72
2021/03/01 15:53:16;;;;;;;16.45;13.77;;;;;;;11.52;72.82;102261.94;9960024;29;20062;-72
2021/03/01 15:58:18;;;;;;;18.55;13.88;;;;;;;11.41;74.39;102275.34;9974180;29;20050;-72
2021/03/01 16:03:20;;;;;;;18.70;15.02;;;;;;;11.20;75.16;102274.94;9987811;29;20062;-73
2021/03/01 16:08:27;;;;;;;17.90;13.85;;;;;;;11.33;76.20;102298.38;9988734;29;20046;-72
2021/03/01 16:13:30;;;;;;;16.85;14.15;;;;;;;11.27;76.65;102295.88;9988940;29;20074;-72
2021/03/01 16:18:32;;;;;;;18.85;14.88;;;;;;;10.84;78.29;102273.88;9986911;29;20051;-73
2021/03/01 16:23:33;;;;;;;20.98;15.07;;;;;;;10.80;79.27;102280.06;9988788;29;20054;-72
2021/03/01 16:28:36;;;;;;;20.05;14.70;;;;;;;10.67;80.41;102286.47;9988255;29;20057;-72
2021/03/01 16:33:43;;;;;;;19.88;15.05;;;;;;;10.29;80.88;102266.94;9974433;29;20054;-73
2021/03/01 16:38:51;;;;;;;17.83;15.48;;;;;;;10.12;81.89;102266.31;9972119;29;20497;-71
2021/03/01 16:43:54;;;;;;;19.58;16.67;;;;;;;9.82;83.63;102257.97;9987081;29;20476;-72
2021/03/01 16:48:57;;;;;;;19.33;15.10;;;;;;;10.02;83.84;102296.31;9957988;29;20440;-72
2021/03/01 16:54:00;;;;;;;17.20;14.07;;;;;;;9.78;84.10;102274.72;9967524;29;20420;-72
2021/03/01 16:59:03;;;;;;;21.10;15.90;;;;;;;9.88;84.86;102309.66;9987244;29;20054;-72
2021/03/01 17:04:08;;;;;;;18.40;15.73;;;;;;;9.69;85.57;102295.03;9972940;29;20134;-72
2021/03/01 17:09:21;;;;;;;20.40;15.60;;;;;;;9.58;87.07;102300.41;9971997;29;20099;-72
2021/03/01 17:14:58;;;;;;;18.65;15.40;;;;;;;9.28;87.97;102288.53;9972115;29;20115;-72
2021/03/01 17:20:04;;;;;;;22.80;16.83;;;;;;;9.03;88.72;102279.19;9953209;29;20127;-73
2021/03/01 17:25:08;;;;;;;25.83;22.65;;;;;;;8.79;92.00;102292.59;9963340;29;20062;-73
2021/03/01 17:30:13;;;;;;;28.05;23.08;;;;;;;8.54;93.77;102282.28;9970869;29;20057;-72
2021/03/01 17:35:21;;;;;;;28.77;21.80;;;;;;;8.27;95.03;102288.63;9994682;29;20050;-73
2021/03/01 17:40:25;;;;;;;28.70;23.33;;;;;;;8.29;95.50;102306.97;10023485;29;20480;-73
2021/03/01 17:45:28;;;;;;;26.20;21.50;;;;;;;8.12;95.69;102304.47;10023050;29;20058;-73
2021/03/01 17:50:33;;;;;;;25.77;19.45;;;;;;;7.85;95.81;102287.16;10008217;29;20054;-73
2021/03/01 17:55:58;;;;;;;24.52;18.10;;;;;;;7.54;98.27;102283.81;9963418;29;20446;-72
2021/03/01 18:01:06;;;;;;;27.17;17.98;;;;;;;7.36;100.00;102286.56;9970590;29;20505;-73
2021/03/01 18:06:18;;;;;;;22.10;16.35;;;;;;;7.20;100.00;102285.72;9954675;29;20492;-73
2021/03/01 18:11:25;;;;;;;20.80;14.93;;;;;;;7.38;100.00;102317.97;9984021;29;20054;-73
2021/03/01 18:16:33;;;;;;;19.25;15.45;;;;;;;7.72;100.00;102348.44;9969193;29;20062;-72
2021/03/01 18:21:50;;;;;;;19.92;15.95;;;;;;;7.27;99.08;102302.31;9969010;29;20795;-72
2021/03/01 18:26:55;;;;;;;25.47;19.30;;;;;;;6.78;100.00;102268.34;10003143;29;20085;-72
2021/03/01 18:32:00;;;;;;;;;;;;;;;6.52;100.00;102275.41;9993083;29;20054;-72
2021/03/01 18:37:14;;;;;;;22.67;18.75;;;;;;;6.50;100.00;102284.13;10005895;29;19928;-72
2021/03/01 18:42:17;;;;;;;21.50;17.42;;;;;;;6.20;100.00;102282.34;10020785;29;20496;-72
2021/03/01 18:47:23;;;;;;;21.38;17.48;;;;;;;6.21;100.00;102290.22;10006438;29;20050;-73
2021/03/01 18:52:26;;;;;;;22.08;17.95;;;;;;;6.35;100.00;102308.56;10016703;29;20521;-73
2021/03/01 18:57:28;;;;;;;27.20;20.30;;;;;;;6.36;100.00;102308.53;9968310;29;20074;-73
2021/03/01 19:02:29;;;;;;;25.63;20.52;;;;;;;6.35;100.00;102309.44;9967848;29;20062;-72
2021/03/01 19:07:33;;;;;;;28.85;23.17;;;;;;;6.01;100.00;102290.22;9967675;29;20149;-72
2021/03/01 19:12:34;;;;;;;56.35;50.10;;;;;;;6.05;100.00;102296.31;9968323;29;20103;-73
2021/03/01 19:17:38;;;;;;;44.78;40.10;;;;;;;5.84;100.00;102283.16;9983068;29;20080;-73
2021/03/01 19:22:44;;;;;;;28.60;25.55;;;;;;;5.76;100.00;102285.78;9968416;29;20073;-73
2021/03/01 19:27:46;;;;;;;28.08;23.35;;;;;;;5.68;100.00;102293.59;9967528;29;20512;-73
2021/03/01 19:32:51;;;;;;;25.08;20.55;;;;;;;5.68;100.00;102300.56;9982050;29;20051;-73
2021/03/01 19:37:53;;;;;;;22.08;18.45;;;;;;;5.56;100.00;102290.06;9981192;29;20127;-73
2021/03/01 19:42:55;;;;;;;23.45;18.50;;;;;;;5.43;100.00;102283.94;9983835;29;20122;-73
2021/03/01 19:47:56;;;;;;;26.33;22.13;;;;;;;5.33;100.00;102282.13;9952336;29;20143;-73
2021/03/01 19:53:02;;;;;;;25.17;19.45;;;;;;;5.15;100.00;102280.31;9966861;29;20054;-73
2021/03/01 19:58:05;;;;;;;24.38;18.48;;;;;;;5.24;100.00;102305.63;9967277;29;20050;-73
2021/03/01 20:03:07;;;;;;;26.15;21.02;;;;;;;5.39;100.00;102310.91;9953228;29;20066;-72
2021/03/01 20:08:11;;;;;;;25.98;21.17;;;;;;;5.25;100.00;102289.06;9966599;29;20059;-73
2021/03/01 20:13:16;;;;;;;26.00;20.10;;;;;;;5.25;100.00;102291.69;9967252;29;20054;-72
2021/03/01 20:18:18;;;;;;;32.60;24.52;;;;;;;5.19;100.00;102294.28;9955821;29;20050;-73
2021/03/01 20:23:22;;;;;;;30.70;23.13;;;;;;;5.24;100.00;102316.06;9958320;29;20062;-73
2021/03/01 20:28:24;;;;;;;34.20;26.15;;;;;;;5.15;100.00;102306.44;9972664;29;20107;-73
2021/03/01 20:33:27;;;;;;;30.00;23.67;;;;;;;5.15;100.00;102311.66;9988598;29;20111;-73
2021/03/01 20:38:29;;;;;;;27.40;21.70;;;;;;;4.94;100.00;102293.25;9986789;29;20422;-72
2021/03/01 20:43:38;;;;;;;28.08;20.17;;;;;;;5.02;100.00;102308.97;9972282;29;20062;-73
2021/03/01 20:48:43;;;;;;;28.83;21.55;;;;;;;5.00;100.00;102303.75;9971985;29;20054;-73
2021/03/01 20:53:47;;;;;;;24.20;20.08;;;;;;;4.87;100.00;102301.91;9987234;29;20146;-72
2021/03/01 20:58:48;;;;;;;25.67;19.90;;;;;;;4.83;100.00;102310.59;9972053;29;20058;-73
2021/03/01 21:03:51;;;;;;;26.00;21.45;;;;;;;4.65;100.00;102305.25;9971843;29;20451;-73
2021/03/01 21:08:53;;;;;;;26.80;19.85;;;;;;;4.57;100.00;102295.63;9986095;29;20047;-73
2021/03/01 21:14:05;;;;;;;24.33;18.50;;;;;;;4.44;100.00;102288.56;9972205;29;20118;-72
2021/03/01 21:19:14;;;;;;;24.95;18.85;;;;;;;4.26;100.00;102290.16;9987331;29;20082;-72
2021/03/01 21:24:20;;;;;;;24.13;18.30;;;;;;;3.95;100.00;102258.56;9986296;29;20073;-73
2021/03/01 21:29:21;;;;;;;22.38;17.30;;;;;;;4.03;100.00;102282.09;9969898;29;20057;-73
2021/03/01 21:34:43;;;;;;;30.95;24.23;;;;;;;3.95;100.00;102279.41;9970867;29;20522;-72
2021/03/01 21:39:48;;;;;;;24.58;19.13;;;;;;;3.94;100.00;102284.63;9986861;29;20058;-73
2021/03/01 21:44:50;;;;;;;27.30;20.65;;;;;;;4.06;100.00;102303.00;9971174;29;20062;-73
2021/03/01 21:49:59;;;;;;;30.10;21.63;;;;;;;4.01;100.00;102309.91;9985190;29;20137;-72
2021/03/01 21:55:03;;;;;;;26.33;19.00;;;;;;;3.99;100.00;102309.03;9970697;29;20485;-73
2021/03/01 22:00:06;;;;;;;25.23;18.77;;;;;;;3.82;100.00;102298.41;9984713;29;20062;-72
2021/03/01 22:05:21;;;;;;;25.25;18.63;;;;;;;3.68;100.00;102286.97;9986324;29;20058;-73
2021/03/01 22:10:24;;;;;;;26.38;18.90;;;;;;;3.47;100.00;102277.19;9984834;29;20065;-73
2021/03/01 22:15:26;;;;;;;25.65;19.08;;;;;;;3.40;100.00;102277.97;9970326;29;20095;-73
2021/03/01 22:20:32;;;;;;;25.15;17.15;;;;;;;3.28;100.00;102276.06;9984203;29;20054;-72
2021/03/01 22:25:37;;;;;;;20.42;16.33;;;;;;;3.24;100.00;102271.69;9969788;29;20392;-73
2021/03/01 22:30:56;;;;;;;25.15;19.40;;;;;;;2.99;100.00;102260.09;9969368;29;20068;-73
2021/03/01 22:35:58;;;;;;;23.52;16.55;;;;;;;2.79;100.00;102248.53;9983849;29;20146;-73
2021/03/01 22:41:04;;;;;;;22.27;15.43;;;;;;;2.87;100.00;102275.53;9968940;29;20123;-73
2021/03/01 22:46:07;;;;;;;20.38;15.73;;;;;;;2.96;100.00;102277.38;9983347;29;20061;-73
2021/03/01 22:51:10;;;;;;;23.23;17.30;;;;;;;3.24;100.00;102315.09;9984958;29;20050;-73
2021/03/01 22:56:18;;;;;;;22.33;16.27;;;;;;;3.38;100.00;102317.00;9968513;29;20073;-73
2021/03/01 23:01:20;;;;;;;23.50;16.20;;;;;;;3.17;100.00;102295.03;9984418;29;20055;-73
2021/03/01 23:06:25;;;;;;;21.77;16.67;;;;;;;3.14;100.00;102292.38;9968494;29;20157;-72
2021/03/01 23:11:38;;;;;;;24.02;17.25;;;;;;;2.75;100.00;102264.09;9984329;29;20077;-73